Airfield :







YOU CAN JOIN US ON...

 
LOGIN :

Register | Disclaimer

   EN    FR    IT 

 









Legend :    VFR   Marginal VFR   IFR   Intensive IFR   Very Intensive IFR
Visi :
Ceiling :
>= 8 km
>= 3000ft
5 to 8 km
1000 to 3000 ft
1500m to 5 km
500 to 1000 ft
800 to 1500m
200 to 500 ft
< 800m
< 200 ft
Symbols :   Thunderstorms  Fog  Heavy snow  Heavy precipitations  Wind > 20 kt






- Airport Elevation : 1270 ft
- IATA code : YMT


CYMT - Chapais

CURRENT METAR :
  • 221138Z AUTO 30009G16KT 2SM BR OVC005 01/00 A2969 RMK SLP073

EXPIRED METARs :
  • 221133Z AUTO 30007G15KT 270V330 2 1/2SM BR OVC005 01/00 A2969 RMK SLP073
  • 221118Z AUTO 30008G15KT 280V340 1 1/2SM BR OVC005 01/00 A2968 RMK SLP069
  • 221104Z AUTO 30009G16KT 1 1/2SM -RA BR OVC005 01/01 A2967 RMK SLP067
  • 221057Z AUTO 31010G19KT 2SM BR OVC005 01/01 A2967 RMK SLP067
  • 221039Z AUTO 30009G15KT 2 1/2SM BR OVC005 01/01 A2966 RMK SLP063
  • 221026Z AUTO 30010G15KT 2 1/4SM BR OVC005 01/01 A2966 RMK SLP063
  • 221004Z AUTO 30011G20KT 5SM BR OVC005 01/01 A2966 RMK SLP063
  • 220954Z AUTO 31006G16KT 280V350 9SM OVC007 02/01 A2966 RMK SLP064
  • 220914Z AUTO 31010G17KT 7SM -RA OVC005 02/01 A2965 RMK SLP060
  • 220910Z AUTO 31009G17KT 4SM -RA BR OVC005 02/01 A2965 RMK SLP060
  • 220857Z AUTO 32010G17KT 3SM -RA BR OVC005 02/02 A2965 RMK SLP058
  • 220847Z AUTO 31010G15KT 2 1/2SM -RA BR OVC005 02/02 A2964 RMK SLP056

Expired Forecast.
CZUL FIR / North America



MET'MAP, your aeronautical weather chart ! - Copyright ORBIFLY December 2007 - Disclaimer

ORBIFLY MET'MAP TEAM :

Programming & Development : Alexandra Zaïnal
Concept & original design : Baudouin d'Aumeries
Assistance for programming : Marc-Olivier Méhu
Technical & hardware support : Manuel Goepfert

Contact : metmap@orbifly.com




SOURCES & CREDITS :

   NOAA